createdAt,value
2018-09-13T00:02:03.520Z,17.19
2018-09-13T00:04:31.529Z,17.26
2018-09-13T00:06:59.487Z,17.34
2018-09-13T00:09:30.217Z,17.23
2018-09-13T00:11:58.142Z,17.41
2018-09-13T00:14:26.050Z,17.36
2018-09-13T00:16:54.096Z,17.35
2018-09-13T00:19:22.014Z,17.55
2018-09-13T00:21:49.929Z,17.59
2018-09-13T00:24:17.853Z,16.73
2018-09-13T00:26:48.763Z,16.80
2018-09-13T00:29:16.713Z,16.90
2018-09-13T00:31:44.659Z,16.90
2018-09-13T00:34:12.636Z,16.98
2018-09-13T00:36:40.570Z,16.99
2018-09-13T00:39:09.736Z,16.52
2018-09-13T00:41:38.161Z,16.44
2018-09-13T00:44:06.251Z,16.26
2018-09-13T00:46:34.591Z,16.31
2018-09-13T00:49:02.639Z,16.04
2018-09-13T00:51:30.668Z,15.89
2018-09-13T00:53:58.656Z,15.97
2018-09-13T00:56:26.643Z,16.19
2018-09-13T00:58:54.646Z,16.10
2018-09-13T01:01:22.649Z,15.77
2018-09-13T01:03:50.565Z,15.88
2018-09-13T01:06:18.658Z,15.88
2018-09-13T01:08:46.661Z,15.40
2018-09-13T01:11:14.582Z,15.74
2018-09-13T01:13:42.836Z,16.03
2018-09-13T01:16:10.769Z,14.86
2018-09-13T01:18:38.713Z,15.85
2018-09-13T01:21:06.711Z,15.94
2018-09-13T01:23:34.682Z,16.00
2018-09-13T01:26:02.985Z,15.90
2018-09-13T01:28:30.887Z,15.78
2018-09-13T01:30:58.769Z,15.92
2018-09-13T01:33:26.646Z,15.80
2018-09-13T01:35:56.313Z,15.81
2018-09-13T01:38:24.237Z,15.23
2018-09-13T01:40:52.119Z,15.52
2018-09-13T01:43:20.029Z,15.49
2018-09-13T01:45:47.899Z,15.49
2018-09-13T01:48:15.970Z,15.15
2018-09-13T01:50:43.871Z,15.17
2018-09-13T01:53:11.838Z,15.07
2018-09-13T01:55:39.696Z,15.06
2018-09-13T01:58:07.734Z,15.18
2018-09-13T02:00:35.694Z,15.20
2018-09-13T02:03:03.839Z,15.25
2018-09-13T02:05:31.767Z,15.06
2018-09-13T02:07:59.813Z,15.14
2018-09-13T02:10:27.863Z,15.07
2018-09-13T02:12:55.742Z,14.70
2018-09-13T02:15:23.614Z,14.64
2018-09-13T02:17:51.629Z,14.63
2018-09-13T02:20:19.583Z,14.66
2018-09-13T02:22:47.516Z,14.79
2018-09-13T02:25:15.402Z,14.77
2018-09-13T02:27:43.284Z,14.60
2018-09-13T02:30:11.220Z,14.88
2018-09-13T02:32:39.191Z,15.20
2018-09-13T02:35:07.231Z,15.23
2018-09-13T02:37:35.190Z,15.21
2018-09-13T02:40:03.208Z,15.29
2018-09-13T02:42:31.179Z,14.70
2018-09-13T02:44:59.050Z,14.80
2018-09-13T02:47:26.941Z,14.94
2018-09-13T02:49:55.094Z,14.94
2018-09-13T02:52:23.105Z,15.09
2018-09-13T02:54:51.215Z,15.26
2018-09-13T02:57:19.153Z,15.49
2018-09-13T02:59:47.355Z,15.55
2018-09-13T03:02:15.363Z,15.23
2018-09-13T03:04:43.549Z,15.12
2018-09-13T03:07:11.458Z,15.17
2018-09-13T03:09:39.320Z,15.29
2018-09-13T03:12:07.277Z,14.78
2018-09-13T03:14:35.266Z,14.84
2018-09-13T03:17:03.189Z,14.70
2018-09-13T03:19:31.102Z,14.65
2018-09-13T03:21:59.080Z,14.42
2018-09-13T03:24:26.991Z,14.64
2018-09-13T03:26:54.981Z,14.57
2018-09-13T03:29:23.091Z,14.55
2018-09-13T03:31:50.986Z,14.26
2018-09-13T03:34:18.981Z,14.07
2018-09-13T03:36:46.856Z,13.88
2018-09-13T03:39:14.756Z,13.79
2018-09-13T03:41:42.816Z,12.97
2018-09-13T03:44:10.861Z,12.91
2018-09-13T03:46:38.792Z,12.96
2018-09-13T03:49:06.720Z,12.91
2018-09-13T03:51:34.662Z,12.82
2018-09-13T03:54:02.654Z,13.05
2018-09-13T03:56:30.557Z,13.11
2018-09-13T03:58:58.700Z,12.92
2018-09-13T04:01:26.592Z,12.82
2018-09-13T04:03:54.623Z,12.75
2018-09-13T04:06:22.658Z,12.90
2018-09-13T04:08:50.724Z,12.96
2018-09-13T04:11:18.662Z,13.04
2018-09-13T04:13:46.871Z,13.13
2018-09-13T04:16:14.744Z,13.07
2018-09-13T04:18:42.646Z,13.34
2018-09-13T04:21:10.498Z,13.40
2018-09-13T04:23:38.452Z,13.38
2018-09-13T04:26:06.345Z,13.25
2018-09-13T04:28:34.526Z,13.60
2018-09-13T04:31:02.504Z,13.66
2018-09-13T04:33:30.342Z,13.84
2018-09-13T04:35:58.300Z,14.24
2018-09-13T04:38:26.243Z,14.33
2018-09-13T04:40:54.234Z,14.58
2018-09-13T04:43:22.311Z,14.71
2018-09-13T04:45:50.385Z,14.81
2018-09-13T04:48:19.252Z,14.51
2018-09-13T04:50:47.146Z,14.50
2018-09-13T04:53:15.196Z,14.28
2018-09-13T04:55:43.195Z,14.27
2018-09-13T04:58:11.133Z,14.45
2018-09-13T05:00:39.193Z,14.93
2018-09-13T05:03:07.133Z,15.21
2018-09-13T05:05:35.036Z,15.38
2018-09-13T05:08:03.058Z,15.75
2018-09-13T05:10:30.995Z,15.65
2018-09-13T05:12:58.991Z,15.62
2018-09-13T05:15:26.946Z,15.62
2018-09-13T05:17:54.982Z,15.97
2018-09-13T05:20:24.372Z,16.14
2018-09-13T05:22:52.383Z,16.42
2018-09-13T05:25:20.434Z,16.75
2018-09-13T05:27:48.396Z,16.99
2018-09-13T05:30:16.442Z,16.74
2018-09-13T05:32:44.470Z,16.93
2018-09-13T05:35:12.428Z,17.12
2018-09-13T05:37:40.969Z,17.22
2018-09-13T05:40:08.913Z,17.07
2018-09-13T05:42:36.851Z,17.06
2018-09-13T05:45:04.956Z,17.32
2018-09-13T05:47:32.829Z,17.17
2018-09-13T05:50:00.860Z,17.10
2018-09-13T05:52:28.782Z,16.77
2018-09-13T05:54:57.119Z,17.15
2018-09-13T05:57:25.079Z,17.01
2018-09-13T05:59:53.126Z,17.50
2018-09-13T06:02:21.047Z,17.28
2018-09-13T06:04:49.376Z,17.45
2018-09-13T06:07:17.947Z,17.37
2018-09-13T06:09:46.256Z,17.43
2018-09-13T06:12:14.324Z,17.62
2018-09-13T06:14:42.806Z,17.98
2018-09-13T06:17:10.898Z,18.42
2018-09-13T06:19:38.950Z,18.64
2018-09-13T06:22:07.907Z,18.68
2018-09-13T06:24:36.036Z,19.42
2018-09-13T06:27:07.001Z,19.69
2018-09-13T06:29:37.364Z,20.10
2018-09-13T06:32:05.475Z,19.99
2018-09-13T06:34:33.490Z,20.08
2018-09-13T06:37:01.609Z,20.43
2018-09-13T06:39:29.869Z,20.81
2018-09-13T06:41:57.801Z,20.72
2018-09-13T06:44:25.741Z,19.36
2018-09-13T06:46:54.084Z,19.19
2018-09-13T06:49:21.966Z,19.13
2018-09-13T06:51:50.868Z,19.00
2018-09-13T06:54:19.734Z,20.25
2018-09-13T06:56:47.649Z,20.83
2018-09-13T06:59:17.028Z,20.79
2018-09-13T07:01:45.064Z,19.98
2018-09-13T07:04:16.194Z,20.96
2018-09-13T07:06:45.243Z,20.68
2018-09-13T07:09:14.485Z,20.89
2018-09-13T07:11:43.450Z,20.88
2018-09-13T07:14:11.757Z,20.98
2018-09-13T07:16:39.765Z,20.26
2018-09-13T07:19:09.056Z,20.75
2018-09-13T07:21:37.334Z,21.50
2018-09-13T07:24:05.365Z,21.90
2018-09-13T07:26:33.323Z,21.97
2018-09-13T07:29:01.410Z,23.63
2018-09-13T07:31:29.534Z,25.27
2018-09-13T07:33:57.498Z,26.24
2018-09-13T07:36:25.545Z,25.75
2018-09-13T07:38:53.402Z,25.57
2018-09-13T07:41:22.414Z,24.91
2018-09-13T07:43:50.374Z,24.63
2018-09-13T07:46:21.398Z,24.81
2018-09-13T07:48:49.413Z,23.87
2018-09-13T07:51:17.372Z,23.41
2018-09-13T07:53:47.531Z,23.77
2018-09-13T07:56:15.928Z,22.38
2018-09-13T07:58:43.939Z,22.93
2018-09-13T08:01:14.930Z,23.36
2018-09-13T08:03:43.241Z,23.15
2018-09-13T08:06:12.195Z,22.11
2018-09-13T08:08:40.139Z,22.45
2018-09-13T08:11:08.172Z,22.20
2018-09-13T08:13:36.218Z,22.78
2018-09-13T08:16:04.260Z,22.69
2018-09-13T08:18:32.551Z,23.50
2018-09-13T08:21:00.535Z,23.18
2018-09-13T08:23:28.702Z,23.91
2018-09-13T08:25:56.782Z,23.77
2018-09-13T08:28:24.931Z,23.93
2018-09-13T08:30:53.620Z,23.97
2018-09-13T08:33:22.586Z,23.74
2018-09-13T08:35:50.533Z,23.74
2018-09-13T08:38:18.652Z,24.31
2018-09-13T08:40:48.822Z,24.24
2018-09-13T08:43:16.826Z,23.83
2018-09-13T08:45:44.946Z,24.67
2018-09-13T08:48:13.478Z,24.09
2018-09-13T08:50:41.496Z,23.25
2018-09-13T08:53:11.369Z,23.36
2018-09-13T08:55:40.089Z,23.82
2018-09-13T08:58:08.644Z,23.92
2018-09-13T09:00:36.913Z,23.51
2018-09-13T09:03:05.473Z,24.02
2018-09-13T09:05:33.856Z,23.55
2018-09-13T09:08:02.567Z,23.71
2018-09-13T09:10:30.975Z,23.55
2018-09-13T09:12:58.807Z,22.91
2018-09-13T09:15:27.281Z,23.32
2018-09-13T09:17:56.397Z,22.78
2018-09-13T09:20:24.508Z,22.80
2018-09-13T09:22:52.586Z,22.28
2018-09-13T09:25:32.052Z,22.69
2018-09-13T09:28:00.353Z,22.37
2018-09-13T09:30:29.009Z,22.42
2018-09-13T09:32:59.005Z,22.72
2018-09-13T09:35:29.337Z,22.75
2018-09-13T09:37:57.415Z,22.82
2018-09-13T09:40:25.518Z,22.81
2018-09-13T09:43:19.343Z,22.95
2018-09-13T09:45:47.516Z,22.03
2018-09-13T09:48:17.928Z,22.32
2018-09-13T09:50:45.942Z,22.50
2018-09-13T09:53:14.041Z,23.16
2018-09-13T09:55:42.206Z,23.80
2018-09-13T09:58:11.187Z,24.77
2018-09-13T10:00:44.523Z,24.94
2018-09-13T10:03:18.861Z,24.04
2018-09-13T10:05:47.771Z,24.65
2018-09-13T10:08:15.903Z,23.47
2018-09-13T10:10:44.094Z,23.02
2018-09-13T10:13:12.078Z,22.93
2018-09-13T10:15:45.307Z,23.03
2018-09-13T10:18:18.880Z,22.67
2018-09-13T10:20:52.346Z,23.26
2018-09-13T10:23:25.678Z,23.36
2018-09-13T10:25:59.084Z,23.23
2018-09-13T10:28:33.265Z,23.02
2018-09-13T10:31:06.758Z,23.16
2018-09-13T10:33:40.279Z,22.97
2018-09-13T10:36:15.455Z,23.40
2018-09-13T10:38:48.947Z,24.63
2018-09-13T10:41:22.304Z,25.14
2018-09-13T10:43:55.684Z,25.95
2018-09-13T10:46:25.056Z,25.29
2018-09-13T10:48:58.421Z,26.01
2018-09-13T10:51:32.453Z,25.87
2018-09-13T10:54:06.062Z,25.13
2018-09-13T10:56:34.181Z,24.12
2018-09-13T10:59:02.611Z,24.27
2018-09-13T11:01:31.006Z,24.11
2018-09-13T11:03:59.204Z,22.56
2018-09-13T11:06:27.873Z,24.68
2018-09-13T11:08:56.097Z,25.31
2018-09-13T11:11:24.282Z,26.45
2018-09-13T11:14:00.589Z,27.24
2018-09-13T11:16:28.662Z,26.11
2018-09-13T11:18:56.630Z,25.69
2018-09-13T11:21:25.125Z,25.60
2018-09-13T11:23:53.154Z,25.59
2018-09-13T11:26:21.223Z,25.35
2018-09-13T11:28:49.512Z,24.86
2018-09-13T11:31:17.537Z,24.53
2018-09-13T11:33:46.361Z,24.61
2018-09-13T11:36:16.515Z,24.55
2018-09-13T11:38:44.838Z,24.89
2018-09-13T11:41:13.313Z,25.31
2018-09-13T11:43:43.128Z,25.42
2018-09-13T11:46:11.268Z,25.10
2018-09-13T11:48:39.339Z,25.39
2018-09-13T11:51:07.434Z,26.18
2018-09-13T11:53:35.517Z,25.77
2018-09-13T11:56:03.838Z,26.37
2018-09-13T11:58:31.983Z,25.78
2018-09-13T12:01:00.352Z,25.35
2018-09-13T12:03:30.079Z,24.92
2018-09-13T12:05:58.138Z,24.52
2018-09-13T12:08:32.599Z,23.85
2018-09-13T12:11:03.912Z,23.98
2018-09-13T12:14:00.568Z,23.97
2018-09-13T12:16:30.524Z,24.06
2018-09-13T12:19:05.769Z,24.48
2018-09-13T12:21:38.514Z,23.99
2018-09-13T12:24:11.471Z,24.08
2018-09-13T12:26:46.632Z,23.84
2018-09-13T12:29:16.255Z,23.79
2018-09-13T12:31:45.859Z,24.13
2018-09-13T12:34:14.228Z,24.02
2018-09-13T12:36:42.630Z,22.95
2018-09-13T12:39:13.323Z,24.48
2018-09-13T12:41:43.445Z,24.55
2018-09-13T12:44:12.590Z,24.21
2018-09-13T12:46:40.934Z,23.89
2018-09-13T12:49:10.262Z,23.93
2018-09-13T12:51:38.252Z,24.04
2018-09-13T12:54:06.327Z,24.50
2018-09-13T12:56:34.357Z,24.70
2018-09-13T12:59:02.498Z,24.45
2018-09-13T13:01:30.787Z,24.46
2018-09-13T13:03:59.130Z,24.72
2018-09-13T13:06:27.326Z,25.33
2018-09-13T13:08:55.377Z,24.86
2018-09-13T13:11:23.764Z,25.17
2018-09-13T13:13:51.930Z,25.30
2018-09-13T13:16:20.529Z,25.32
2018-09-13T13:18:48.732Z,25.39
2018-09-13T13:21:16.842Z,25.72
2018-09-13T13:23:45.107Z,25.48
2018-09-13T13:26:15.048Z,25.13
2018-09-13T13:28:43.679Z,25.11
2018-09-13T13:31:17.257Z,24.87
2018-09-13T13:33:45.295Z,25.00
2018-09-13T13:36:15.544Z,24.44
2018-09-13T13:38:45.371Z,24.77
2018-09-13T13:41:14.310Z,24.72
2018-09-13T13:43:42.458Z,24.56
2018-09-13T13:46:10.519Z,24.66
2018-09-13T13:48:39.027Z,24.75
2018-09-13T13:51:07.049Z,24.81
2018-09-13T13:53:35.948Z,24.71
2018-09-13T13:56:03.943Z,24.40
2018-09-13T13:58:31.918Z,24.70
2018-09-13T14:00:59.972Z,24.57
2018-09-13T14:03:28.248Z,24.26
2018-09-13T14:05:57.039Z,24.02
2018-09-13T14:08:26.009Z,23.83
2018-09-13T14:10:58.448Z,23.97
2018-09-13T14:13:26.522Z,24.11
2018-09-13T14:15:54.485Z,23.90
2018-09-13T14:18:22.500Z,23.76
2018-09-13T14:20:50.596Z,23.77
2018-09-13T14:23:18.585Z,23.73
2018-09-13T14:25:50.906Z,23.70
2018-09-13T14:28:19.010Z,23.64
2018-09-13T14:30:47.838Z,23.64
2018-09-13T14:33:15.816Z,23.34
2018-09-13T14:35:44.226Z,23.45
2018-09-13T14:38:12.570Z,23.46
2018-09-13T14:40:40.966Z,23.40
2018-09-13T14:43:09.067Z,23.16
2018-09-13T14:45:37.285Z,23.14
2018-09-13T14:48:05.756Z,23.12
2018-09-13T14:50:33.825Z,23.01
2018-09-13T14:53:01.882Z,22.93
2018-09-13T14:55:29.897Z,23.01
2018-09-13T14:57:58.159Z,22.98
2018-09-13T15:00:26.039Z,22.79
2018-09-13T15:02:54.109Z,22.76
2018-09-13T15:05:22.239Z,22.73
2018-09-13T15:07:50.163Z,22.78
2018-09-13T15:10:18.146Z,22.77
2018-09-13T15:12:46.483Z,22.75
2018-09-13T15:15:15.206Z,22.88
2018-09-13T15:17:43.193Z,22.68
2018-09-13T15:20:11.248Z,23.00
2018-09-13T15:22:40.206Z,22.88
2018-09-13T15:25:08.263Z,22.81
2018-09-13T15:27:36.126Z,22.80
2018-09-13T15:30:04.559Z,22.74
2018-09-13T15:32:32.583Z,22.66
2018-09-13T15:35:00.612Z,22.58
2018-09-13T15:37:28.584Z,22.56
2018-09-13T15:39:57.282Z,22.57
2018-09-13T15:42:25.839Z,22.48
2018-09-13T15:44:54.196Z,22.38
2018-09-13T15:47:22.783Z,22.48
2018-09-13T15:49:51.158Z,22.47
2018-09-13T15:52:19.184Z,22.34
2018-09-13T15:54:47.431Z,22.26
2018-09-13T15:57:16.973Z,22.19
2018-09-13T15:59:45.436Z,22.19
2018-09-13T16:02:13.561Z,22.16
2018-09-13T16:04:41.596Z,22.09
2018-09-13T16:07:09.745Z,22.02
2018-09-13T16:09:37.730Z,22.09
2018-09-13T16:12:05.670Z,22.04
2018-09-13T16:14:33.824Z,21.96
2018-09-13T16:17:01.748Z,21.84
2018-09-13T16:19:29.772Z,21.74
2018-09-13T16:21:57.813Z,21.81
2018-09-13T16:24:25.750Z,21.74
2018-09-13T16:29:26.725Z,21.61
2018-09-13T16:31:54.874Z,21.62
2018-09-13T16:34:22.841Z,21.52
2018-09-13T16:36:58.482Z,21.50
2018-09-13T16:39:31.665Z,21.43
2018-09-13T16:42:05.106Z,21.37
2018-09-13T16:44:38.558Z,21.37
2018-09-13T16:47:12.034Z,21.32
2018-09-13T16:49:40.360Z,21.20
2018-09-13T16:52:08.974Z,21.12
2018-09-13T16:54:36.954Z,20.93
2018-09-13T16:57:05.045Z,20.80
2018-09-13T16:59:33.152Z,20.69
2018-09-13T17:02:01.106Z,20.77
2018-09-13T17:04:29.071Z,20.80
2018-09-13T17:06:57.029Z,20.76
2018-09-13T17:09:25.203Z,20.66
2018-09-13T17:11:53.282Z,20.63
2018-09-13T17:14:21.301Z,20.60
2018-09-13T17:16:49.549Z,20.57
2018-09-13T17:19:17.503Z,20.48
2018-09-13T17:21:45.472Z,20.54
2018-09-13T17:24:13.421Z,20.48
2018-09-13T17:26:41.514Z,20.53
2018-09-13T17:29:09.738Z,20.55
2018-09-13T17:31:37.755Z,20.84
2018-09-13T17:34:05.767Z,20.97
2018-09-13T17:36:33.649Z,21.00
2018-09-13T17:39:01.580Z,20.97
2018-09-13T17:41:29.514Z,20.93
2018-09-13T17:43:57.538Z,20.94
2018-09-13T17:46:25.529Z,20.97
2018-09-13T17:48:53.503Z,21.02
2018-09-13T17:51:21.374Z,21.00
2018-09-13T17:53:49.325Z,20.97
2018-09-13T17:56:17.274Z,20.94
2018-09-13T17:58:45.245Z,20.92
2018-09-13T18:01:13.397Z,20.92
2018-09-13T18:03:41.535Z,20.96
2018-09-13T18:06:09.869Z,20.96
2018-09-13T18:08:38.161Z,20.90
2018-09-13T18:11:06.098Z,20.83
2018-09-13T18:13:34.066Z,20.78
2018-09-13T18:16:02.014Z,20.80
2018-09-13T18:18:30.574Z,20.83
2018-09-13T18:20:59.203Z,20.85
2018-09-13T18:23:27.218Z,20.79
2018-09-13T18:25:55.734Z,20.88
2018-09-13T18:28:23.738Z,20.91
2018-09-13T18:30:51.688Z,20.99
2018-09-13T18:33:19.584Z,21.07
2018-09-13T18:35:47.491Z,20.90
2018-09-13T18:38:15.413Z,20.85
2018-09-13T18:40:43.268Z,20.81
2018-09-13T18:43:11.255Z,20.78
2018-09-13T18:45:39.284Z,20.68
2018-09-13T18:48:07.554Z,20.49
2018-09-13T18:50:36.435Z,20.40
2018-09-13T18:53:04.416Z,20.31
2018-09-13T18:55:32.440Z,20.24
2018-09-13T18:58:00.416Z,20.23
2018-09-13T19:00:28.335Z,20.18
2018-09-13T19:02:56.336Z,20.14
2018-09-13T19:05:24.349Z,19.99
2018-09-13T19:07:52.387Z,19.90
2018-09-13T19:10:20.423Z,19.84
2018-09-13T19:12:48.456Z,19.73
2018-09-13T19:15:16.401Z,19.73
2018-09-13T19:17:44.400Z,19.64
2018-09-13T19:20:12.406Z,19.65
2018-09-13T19:22:40.278Z,19.62
2018-09-13T19:25:08.210Z,19.55
2018-09-13T19:27:37.012Z,19.49
2018-09-13T19:30:05.080Z,19.33
2018-09-13T19:32:33.235Z,19.24
2018-09-13T19:35:01.182Z,19.17
2018-09-13T19:37:29.113Z,19.14
2018-09-13T19:39:57.070Z,19.12
2018-09-13T19:42:25.228Z,19.15
2018-09-13T19:44:53.184Z,19.20
2018-09-13T19:47:21.179Z,19.20
2018-09-13T19:49:49.366Z,19.17
2018-09-13T19:52:17.315Z,19.15
2018-09-13T19:54:45.627Z,19.09
2018-09-13T19:57:13.649Z,18.94
2018-09-13T19:59:42.217Z,18.87
2018-09-13T20:02:10.116Z,18.76
2018-09-13T20:04:38.222Z,18.71
2018-09-13T20:07:06.233Z,18.65
2018-09-13T20:09:34.130Z,18.65
2018-09-13T20:12:02.128Z,18.67
2018-09-13T20:14:29.995Z,18.62
2018-09-13T20:16:58.007Z,18.62
2018-09-13T20:19:26.737Z,18.67
2018-09-13T20:21:54.626Z,18.60
2018-09-13T20:24:22.569Z,18.54
2018-09-13T20:26:50.481Z,18.49
2018-09-13T20:29:18.388Z,18.39
2018-09-13T20:31:46.338Z,18.33
2018-09-13T20:34:14.475Z,18.31
2018-09-13T20:36:42.424Z,18.39
2018-09-13T20:39:11.139Z,18.38
2018-09-13T20:41:39.321Z,18.41
2018-09-13T20:44:08.272Z,18.44
2018-09-13T20:46:36.249Z,18.49
2018-09-13T20:49:04.707Z,18.52
2018-09-13T20:51:56.918Z,18.49
2018-09-13T20:54:25.086Z,18.49
2018-09-13T20:56:53.087Z,18.46
2018-09-13T20:59:21.036Z,18.46
2018-09-13T21:01:48.947Z,18.43
2018-09-13T21:04:16.882Z,18.39
2018-09-13T21:06:44.882Z,18.40
2018-09-13T21:09:12.902Z,18.39
2018-09-13T21:11:41.190Z,18.28
2018-09-13T21:14:10.337Z,18.25
2018-09-13T21:16:38.368Z,18.09
2018-09-13T21:19:06.982Z,18.04
2018-09-13T21:21:35.027Z,17.90
2018-09-13T21:24:03.854Z,17.66
2018-09-13T21:26:35.486Z,17.47
2018-09-13T21:29:03.421Z,17.08
2018-09-13T21:31:31.437Z,16.85
2018-09-13T21:33:59.381Z,16.92
2018-09-13T21:36:33.972Z,16.96
2018-09-13T21:39:02.528Z,16.97
2018-09-13T21:41:31.431Z,17.00
2018-09-13T21:44:01.826Z,16.81
2018-09-13T21:46:29.715Z,16.85
2018-09-13T21:48:57.654Z,16.64
2018-09-13T21:51:25.607Z,16.54
2018-09-13T21:53:53.923Z,16.66
2018-09-13T21:56:22.827Z,16.67
2018-09-13T21:58:52.988Z,16.74
2018-09-13T22:01:20.949Z,16.70
2018-09-13T22:03:48.858Z,16.83
2018-09-13T22:06:17.631Z,16.69
2018-09-13T22:08:45.966Z,16.81
2018-09-13T22:11:14.910Z,16.82
2018-09-13T22:13:43.108Z,16.90
2018-09-13T22:16:11.106Z,16.80
2018-09-13T22:18:38.999Z,16.79
2018-09-13T22:21:07.065Z,16.65
2018-09-13T22:23:34.983Z,16.57
2018-09-13T22:26:03.209Z,16.57
2018-09-13T22:28:31.160Z,16.60
2018-09-13T22:31:00.167Z,16.51
2018-09-13T22:33:28.090Z,16.29
2018-09-13T22:35:56.129Z,16.20
2018-09-13T22:38:24.309Z,16.14
2018-09-13T22:40:55.354Z,16.16
2018-09-13T22:43:23.513Z,16.00
2018-09-13T22:45:51.550Z,15.96
2018-09-13T22:48:19.623Z,16.11
2018-09-13T22:50:48.231Z,16.16
2018-09-13T22:53:16.185Z,16.18
2018-09-13T22:55:44.097Z,16.21
2018-09-13T22:58:12.040Z,16.20
2018-09-13T23:00:39.955Z,16.17
2018-09-13T23:03:07.994Z,16.35
2018-09-13T23:05:35.935Z,16.28
2018-09-13T23:08:03.930Z,16.30
2018-09-13T23:10:31.825Z,16.20
2018-09-13T23:12:59.776Z,16.14
2018-09-13T23:15:27.707Z,15.99
2018-09-13T23:17:55.737Z,15.93
2018-09-13T23:20:23.618Z,15.70
2018-09-13T23:22:51.543Z,15.67
2018-09-13T23:25:19.555Z,15.67
2018-09-13T23:27:48.116Z,15.58
2018-09-13T23:30:16.247Z,15.54
2018-09-13T23:32:44.125Z,15.54
2018-09-13T23:35:12.182Z,15.48
2018-09-13T23:37:40.112Z,15.55
2018-09-13T23:40:08.329Z,15.44
2018-09-13T23:42:36.245Z,15.19
2018-09-13T23:45:04.429Z,15.26
2018-09-13T23:47:32.256Z,15.20
2018-09-13T23:50:00.279Z,15.12
2018-09-13T23:52:28.385Z,15.00
2018-09-13T23:54:56.267Z,15.17
2018-09-13T23:57:24.287Z,15.41
2018-09-13T23:59:52.265Z,15.55
